Bookmark and Share
Track history (hours):
 

Valgardena

Last reported at 2014-Apr-24 13:31 UTC. Time now 2014-Apr-24 13:46 UTC.
Position N 35°50' E 014°36'.

Length 184 m; draft 7.5 m.

Type: Ship. MMSI: 247243800.

NotesDate/timePositionNaut miles runAvg speedWind from/ knotsBaromVisibWave heightAir tempDewpointWater temp
2014-Apr-24 13:31N 35°50' E 014°36'0 0.0
2014-Apr-24 12:28N 35°50' E 014°36'0 0.0
2014-Apr-24 11:28N 35°50' E 014°36'0 0.0
2014-Apr-24 10:31N 35°50' E 014°36'0 0.0
2014-Apr-24 09:31N 35°50' E 014°36'1 1.0
2014-Apr-24 08:33N 35°50' E 014°37'8 7.4
2014-Apr-24 07:27N 35°56' E 014°43'8 1.3
2014-Apr-24 01:31N 35°60' E 014°52'0 0.0
2014-Apr-23 14:04N 36°00' E 014°52'38 3.0
2014-Apr-23 01:19N 36°27' E 014°20'1013.8
2014-Apr-23 00:33N 36°35' E 014°11'1413.6
2014-Apr-22 23:33N 36°45' E 013°60'1413.6
2014-Apr-22 22:33N 36°55' E 013°48'1313.4
2014-Apr-22 21:33N 37°04' E 013°35'15512.9
2014-Apr-22 09:33N 37°58' E 010°32'1313.1
2014-Apr-22 08:32N 37°57' E 010°16'1313.1
2014-Apr-22 07:33N 37°56' E 009°59'1413.3
2014-Apr-22 06:33N 37°56' E 009°42'1513.3
2014-Apr-22 05:26N 37°55' E 009°23'1213.3
2014-Apr-22 04:33N 37°54' E 009°09'1313.4
2014-Apr-22 03:33N 37°53' E 008°52'1413.6
2014-Apr-22 02:33N 37°51' E 008°35'  
2014-Apr-19 13:34N 36°00' W 005°10'1413.8
2014-Apr-19 12:34N 36°08' W 005°24'1 0.1
2014-Apr-19 03:32N 36°08' W 005°26'0 0.0
2014-Apr-19 02:17N 36°08' W 005°26'0 0.0
2014-Apr-18 18:20N 36°08' W 005°26'0 0.0
2014-Apr-18 10:29N 36°08' W 005°26'0 0.0
2014-Apr-18 09:23N 36°08' W 005°26'0 0.0
2014-Apr-18 03:14N 36°08' W 005°26'0 0.0
2014-Apr-18 02:32N 36°08' W 005°26'0 0.0
2014-Apr-18 01:26N 36°08' W 005°26'0 0.0
2014-Apr-18 00:11N 36°08' W 005°26'0 0.0
2014-Apr-17 23:32N 36°08' W 005°26'0 0.0
2014-Apr-17 22:32N 36°08' W 005°26'0 0.0
2014-Apr-17 21:32N 36°08' W 005°26'0 0.0
2014-Apr-17 20:26N 36°08' W 005°26'0 0.0
2014-Apr-17 18:32N 36°08' W 005°26'0 0.0
2014-Apr-17 17:32N 36°08' W 005°26'0 0.0
2014-Apr-17 16:33N 36°08' W 005°26'3 2.5
2014-Apr-17 15:31N 36°10' W 005°23'0 0.1
2014-Apr-17 14:31N 36°10' W 005°23'0 0.0
2014-Apr-17 13:31N 36°10' W 005°23'0 0.1
2014-Apr-17 12:28N 36°10' W 005°23'0 0.1
2014-Apr-17 11:31N 36°10' W 005°23'0 0.0
2014-Apr-17 10:31N 36°10' W 005°23'0 0.1
2014-Apr-17 09:31N 36°10' W 005°23'0 0.0
2014-Apr-17 08:31N 36°10' W 005°23'0 0.1
2014-Apr-17 07:31N 36°10' W 005°23'3 3.1
2014-Apr-17 06:33N 36°07' W 005°23'10 9.7
2014-Apr-17 05:33N 36°03' W 005°12'23613.0
2014-Apr-16 11:24N 37°31' W 000°38'1113.1
2014-Apr-16 10:32N 37°40' W 000°29'2813.4
2014-Apr-16 08:27N 38°03' W 000°10'7813.0
2014-Apr-16 02:28N 39°10' E 000°42'4013.8
2014-Apr-15 23:33N 39°45' E 001°07'1413.8
2014-Apr-15 22:33N 39°57' E 001°15'1413.7
2014-Apr-15 21:33N 40°09' E 001°24'1413.8
2014-Apr-15 20:33N 40°21' E 001°32'1414.2
2014-Apr-15 19:34N 40°34' E 001°41'1313.2
2014-Apr-15 18:33N 40°45' E 001°50'1514.8
2014-Apr-15 17:33N 40°56' E 002°03'10 9.7
2014-Apr-15 16:30N 41°05' E 002°10'1112.0
2014-Apr-15 15:33N 41°16' E 002°11'5 0.2
2014-Apr-14 18:34N 41°21' E 002°09'3 2.8
2014-Apr-14 17:33N 41°19' E 002°12'0 0.1
2014-Apr-14 14:32N 41°19' E 002°12'0 0.0
2014-Apr-14 13:32N 41°19' E 002°12'  

Dump ship's entire track history

sailing weather and tide predictions

Valgardena — ICKG — position and weather